sensor_id;sensor_type;location;lat;lon;timestamp;temperature;humidity
43627;DHT22;29217;52.586;13.442;2023-03-14T00:01:52;12.60;99.90
43627;DHT22;29217;52.586;13.442;2023-03-14T00:04:17;12.50;99.90
43627;DHT22;29217;52.586;13.442;2023-03-14T00:06:43;12.50;99.90
43627;DHT22;29217;52.586;13.442;2023-03-14T00:09:08;12.40;99.90
43627;DHT22;29217;52.586;13.442;2023-03-14T00:11:38;12.40;99.90
43627;DHT22;29217;52.586;13.442;2023-03-14T00:14:04;12.40;99.90
43627;DHT22;29217;52.586;13.442;2023-03-14T00:16:30;12.40;99.90
43627;DHT22;29217;52.586;13.442;2023-03-14T00:18:57;12.30;99.90
43627;DHT22;29217;52.586;13.442;2023-03-14T00:21:23;12.30;99.90
43627;DHT22;29217;52.586;13.442;2023-03-14T00:23:49;12.30;99.90
43627;DHT22;29217;52.586;13.442;2023-03-14T00:26:17;12.30;99.90
43627;DHT22;29217;52.586;13.442;2023-03-14T00:28:44;12.30;99.90
43627;DHT22;29217;52.586;13.442;2023-03-14T00:31:12;12.20;99.90
43627;DHT22;29217;52.586;13.442;2023-03-14T00:33:38;12.20;99.90
43627;DHT22;29217;52.586;13.442;2023-03-14T00:36:06;12.20;99.90
43627;DHT22;29217;52.586;13.442;2023-03-14T00:38:34;12.10;99.90
43627;DHT22;29217;52.586;13.442;2023-03-14T00:41:04;12.00;99.90
43627;DHT22;29217;52.586;13.442;2023-03-14T00:43:30;12.00;99.90
43627;DHT22;29217;52.586;13.442;2023-03-14T00:45:55;12.00;99.90
43627;DHT22;29217;52.586;13.442;2023-03-14T00:48:23;12.00;99.90
43627;DHT22;29217;52.586;13.442;2023-03-14T00:50:49;11.90;99.90
43627;DHT22;29217;52.586;13.442;2023-03-14T00:53:15;11.90;99.90
43627;DHT22;29217;52.586;13.442;2023-03-14T00:55:42;11.90;99.90
43627;DHT22;29217;52.586;13.442;2023-03-14T00:58:09;11.90;99.90
43627;DHT22;29217;52.586;13.442;2023-03-14T01:00:35;11.90;99.90
43627;DHT22;29217;52.586;13.442;2023-03-14T01:03:01;11.80;99.90
43627;DHT22;29217;52.586;13.442;2023-03-14T01:05:27;11.80;99.90
43627;DHT22;29217;52.586;13.442;2023-03-14T01:07:53;11.80;99.90
43627;DHT22;29217;52.586;13.442;2023-03-14T01:10:19;11.70;99.90
43627;DHT22;29217;52.586;13.442;2023-03-14T01:12:44;11.70;99.90
43627;DHT22;29217;52.586;13.442;2023-03-14T01:15:10;11.70;99.90
43627;DHT22;29217;52.586;13.442;2023-03-14T01:17:36;11.70;99.90
43627;DHT22;29217;52.586;13.442;2023-03-14T01:20:04;11.70;99.90
43627;DHT22;29217;52.586;13.442;2023-03-14T01:22:35;11.70;99.90
43627;DHT22;29217;52.586;13.442;2023-03-14T01:25:01;11.70;99.90
43627;DHT22;29217;52.586;13.442;2023-03-14T01:27:27;11.70;99.90
43627;DHT22;29217;52.586;13.442;2023-03-14T01:29:52;11.70;99.90
43627;DHT22;29217;52.586;13.442;2023-03-14T01:32:18;11.70;99.90
43627;DHT22;29217;52.586;13.442;2023-03-14T01:34:43;11.70;99.90
43627;DHT22;29217;52.586;13.442;2023-03-14T01:37:09;11.70;99.90
43627;DHT22;29217;52.586;13.442;2023-03-14T01:39:37;11.70;99.90
43627;DHT22;29217;52.586;13.442;2023-03-14T01:42:03;11.70;99.90
43627;DHT22;29217;52.586;13.442;2023-03-14T01:44:55;11.70;99.90
43627;DHT22;29217;52.586;13.442;2023-03-14T01:47:22;11.70;99.90
43627;DHT22;29217;52.586;13.442;2023-03-14T01:49:53;11.70;99.90
43627;DHT22;29217;52.586;13.442;2023-03-14T01:52:27;11.70;99.90
43627;DHT22;29217;52.586;13.442;2023-03-14T01:55:00;11.70;99.90
43627;DHT22;29217;52.586;13.442;2023-03-14T01:57:39;11.80;99.90
43627;DHT22;29217;52.586;13.442;2023-03-14T02:00:09;11.80;99.90
43627;DHT22;29217;52.586;13.442;2023-03-14T02:02:47;11.80;99.90
43627;DHT22;29217;52.586;13.442;2023-03-14T02:05:17;11.80;99.90
43627;DHT22;29217;52.586;13.442;2023-03-14T02:07:54;11.70;99.90
43627;DHT22;29217;52.586;13.442;2023-03-14T02:10:23;11.70;99.90
43627;DHT22;29217;52.586;13.442;2023-03-14T02:12:50;11.70;99.90
43627;DHT22;29217;52.586;13.442;2023-03-14T02:15:17;11.70;99.90
43627;DHT22;29217;52.586;13.442;2023-03-14T02:17:43;11.60;99.90
43627;DHT22;29217;52.586;13.442;2023-03-14T02:22:38;11.60;99.90
43627;DHT22;29217;52.586;13.442;2023-03-14T02:28:03;11.70;99.90
43627;DHT22;29217;52.586;13.442;2023-03-14T02:30:31;11.70;99.90
43627;DHT22;29217;52.586;13.442;2023-03-14T02:33:06;11.70;99.90
43627;DHT22;29217;52.586;13.442;2023-03-14T02:35:42;11.70;99.90
43627;DHT22;29217;52.586;13.442;2023-03-14T02:38:22;11.70;99.90
43627;DHT22;29217;52.586;13.442;2023-03-14T02:40:50;11.60;99.90
43627;DHT22;29217;52.586;13.442;2023-03-14T02:43:16;11.60;99.90
43627;DHT22;29217;52.586;13.442;2023-03-14T02:45:44;11.60;99.90
43627;DHT22;29217;52.586;13.442;2023-03-14T02:48:22;11.60;99.90
43627;DHT22;29217;52.586;13.442;2023-03-14T02:50:52;11.60;99.90
43627;DHT22;29217;52.586;13.442;2023-03-14T02:53:23;11.60;99.90
43627;DHT22;29217;52.586;13.442;2023-03-14T02:55:50;11.60;99.90
43627;DHT22;29217;52.586;13.442;2023-03-14T02:58:16;11.60;99.90
43627;DHT22;29217;52.586;13.442;2023-03-14T03:00:42;11.70;99.90
43627;DHT22;29217;52.586;13.442;2023-03-14T03:03:08;11.60;99.90
43627;DHT22;29217;52.586;13.442;2023-03-14T03:05:34;11.60;99.90
43627;DHT22;29217;52.586;13.442;2023-03-14T03:07:59;11.60;99.90
43627;DHT22;29217;52.586;13.442;2023-03-14T03:10:26;11.50;99.90
43627;DHT22;29217;52.586;13.442;2023-03-14T03:12:52;11.50;99.90
43627;DHT22;29217;52.586;13.442;2023-03-14T03:15:17;11.50;99.90
43627;DHT22;29217;52.586;13.442;2023-03-14T03:17:43;11.40;99.90
43627;DHT22;29217;52.586;13.442;2023-03-14T03:20:09;11.50;99.90
43627;DHT22;29217;52.586;13.442;2023-03-14T03:22:38;11.40;99.90
43627;DHT22;29217;52.586;13.442;2023-03-14T03:25:05;11.40;99.90
43627;DHT22;29217;52.586;13.442;2023-03-14T03:27:33;11.40;99.90
43627;DHT22;29217;52.586;13.442;2023-03-14T03:29:59;11.40;99.90
43627;DHT22;29217;52.586;13.442;2023-03-14T03:32:25;11.50;99.90
43627;DHT22;29217;52.586;13.442;2023-03-14T03:34:51;11.40;99.90
43627;DHT22;29217;52.586;13.442;2023-03-14T03:37:16;11.40;99.90
43627;DHT22;29217;52.586;13.442;2023-03-14T03:39:42;11.40;99.90
43627;DHT22;29217;52.586;13.442;2023-03-14T03:42:08;11.40;99.90
43627;DHT22;29217;52.586;13.442;2023-03-14T03:44:33;11.40;99.90
43627;DHT22;29217;52.586;13.442;2023-03-14T03:46:59;11.40;99.90
43627;DHT22;29217;52.586;13.442;2023-03-14T03:49:29;11.30;99.90
43627;DHT22;29217;52.586;13.442;2023-03-14T03:51:55;11.30;99.90
43627;DHT22;29217;52.586;13.442;2023-03-14T03:54:20;11.30;99.90
43627;DHT22;29217;52.586;13.442;2023-03-14T03:56:46;11.30;99.90
43627;DHT22;29217;52.586;13.442;2023-03-14T03:59:12;11.30;99.90
43627;DHT22;29217;52.586;13.442;2023-03-14T04:01:37;11.30;99.90
43627;DHT22;29217;52.586;13.442;2023-03-14T04:04:03;11.30;99.90
43627;DHT22;29217;52.586;13.442;2023-03-14T04:06:29;11.20;99.90
43627;DHT22;29217;52.586;13.442;2023-03-14T04:08:54;11.20;99.90
43627;DHT22;29217;52.586;13.442;2023-03-14T04:11:20;11.30;99.90
43627;DHT22;29217;52.586;13.442;2023-03-14T04:13:45;11.20;99.90
43627;DHT22;29217;52.586;13.442;2023-03-14T04:16:17;11.20;99.90
43627;DHT22;29217;52.586;13.442;2023-03-14T04:18:43;11.20;99.90
43627;DHT22;29217;52.586;13.442;2023-03-14T04:21:09;11.20;99.90
43627;DHT22;29217;52.586;13.442;2023-03-14T04:23:34;11.10;99.90
43627;DHT22;29217;52.586;13.442;2023-03-14T04:26:00;11.20;99.90
43627;DHT22;29217;52.586;13.442;2023-03-14T04:28:26;11.20;99.90
43627;DHT22;29217;52.586;13.442;2023-03-14T04:30:51;11.20;99.90
43627;DHT22;29217;52.586;13.442;2023-03-14T04:33:17;11.20;99.90
43627;DHT22;29217;52.586;13.442;2023-03-14T04:35:44;11.10;99.90
43627;DHT22;29217;52.586;13.442;2023-03-14T04:38:10;11.10;99.90
43627;DHT22;29217;52.586;13.442;2023-03-14T04:40:43;11.10;99.90
43627;DHT22;29217;52.586;13.442;2023-03-14T04:43:10;11.20;99.90
43627;DHT22;29217;52.586;13.442;2023-03-14T04:45:36;11.20;99.90
43627;DHT22;29217;52.586;13.442;2023-03-14T04:48:02;11.20;99.90
43627;DHT22;29217;52.586;13.442;2023-03-14T04:50:28;11.10;99.90
43627;DHT22;29217;52.586;13.442;2023-03-14T04:52:53;11.10;99.90
43627;DHT22;29217;52.586;13.442;2023-03-14T04:55:19;11.00;99.90
43627;DHT22;29217;52.586;13.442;2023-03-14T04:57:44;11.00;99.90
43627;DHT22;29217;52.586;13.442;2023-03-14T05:00:11;11.10;99.90
43627;DHT22;29217;52.586;13.442;2023-03-14T05:02:37;11.10;99.90
43627;DHT22;29217;52.586;13.442;2023-03-14T05:05:03;11.10;99.90
43627;DHT22;29217;52.586;13.442;2023-03-14T05:07:28;11.00;99.90
43627;DHT22;29217;52.586;13.442;2023-03-14T05:09:54;11.10;99.90
43627;DHT22;29217;52.586;13.442;2023-03-14T05:12:20;11.10;99.90
43627;DHT22;29217;52.586;13.442;2023-03-14T05:14:46;11.10;99.90
43627;DHT22;29217;52.586;13.442;2023-03-14T05:17:11;11.10;99.90
43627;DHT22;29217;52.586;13.442;2023-03-14T05:19:40;11.10;99.90
43627;DHT22;29217;52.586;13.442;2023-03-14T05:22:05;11.10;99.90
43627;DHT22;29217;52.586;13.442;2023-03-14T05:24:31;11.10;99.90
43627;DHT22;29217;52.586;13.442;2023-03-14T05:26:57;11.10;99.90
43627;DHT22;29217;52.586;13.442;2023-03-14T05:29:22;11.10;99.90
43627;DHT22;29217;52.586;13.442;2023-03-14T05:31:48;11.10;99.90
43627;DHT22;29217;52.586;13.442;2023-03-14T05:34:13;11.10;99.90
43627;DHT22;29217;52.586;13.442;2023-03-14T05:36:39;11.10;99.90
43627;DHT22;29217;52.586;13.442;2023-03-14T05:39:04;11.10;99.90
43627;DHT22;29217;52.586;13.442;2023-03-14T05:41:30;11.10;99.90
43627;DHT22;29217;52.586;13.442;2023-03-14T05:43:56;11.00;99.90
43627;DHT22;29217;52.586;13.442;2023-03-14T05:46:21;11.10;99.90
43627;DHT22;29217;52.586;13.442;2023-03-14T05:48:47;11.10;99.90
43627;DHT22;29217;52.586;13.442;2023-03-14T05:51:12;11.10;99.90
43627;DHT22;29217;52.586;13.442;2023-03-14T05:53:38;11.10;99.90
43627;DHT22;29217;52.586;13.442;2023-03-14T05:56:04;11.10;99.90
43627;DHT22;29217;52.586;13.442;2023-03-14T05:58:29;11.10;99.90
43627;DHT22;29217;52.586;13.442;2023-03-14T06:00:55;11.10;99.90
43627;DHT22;29217;52.586;13.442;2023-03-14T06:03:20;11.00;99.90
43627;DHT22;29217;52.586;13.442;2023-03-14T06:05:46;11.10;99.90
43627;DHT22;29217;52.586;13.442;2023-03-14T06:08:14;11.10;99.90
43627;DHT22;29217;52.586;13.442;2023-03-14T06:10:40;11.10;99.90
43627;DHT22;29217;52.586;13.442;2023-03-14T06:13:05;11.10;99.90
43627;DHT22;29217;52.586;13.442;2023-03-14T06:15:31;11.10;99.90
43627;DHT22;29217;52.586;13.442;2023-03-14T06:17:58;11.10;99.90
43627;DHT22;29217;52.586;13.442;2023-03-14T06:20:23;11.20;99.90
43627;DHT22;29217;52.586;13.442;2023-03-14T06:22:49;11.20;99.90
43627;DHT22;29217;52.586;13.442;2023-03-14T06:25:15;11.20;99.90
43627;DHT22;29217;52.586;13.442;2023-03-14T06:27:40;11.20;99.90
43627;DHT22;29217;52.586;13.442;2023-03-14T06:30:07;11.20;99.90
43627;DHT22;29217;52.586;13.442;2023-03-14T06:32:33;11.30;99.90
43627;DHT22;29217;52.586;13.442;2023-03-14T06:34:58;11.30;99.90
43627;DHT22;29217;52.586;13.442;2023-03-14T06:37:27;11.30;99.90
43627;DHT22;29217;52.586;13.442;2023-03-14T06:39:53;11.30;99.90
43627;DHT22;29217;52.586;13.442;2023-03-14T06:42:20;11.30;99.90
43627;DHT22;29217;52.586;13.442;2023-03-14T06:44:46;11.30;99.90
43627;DHT22;29217;52.586;13.442;2023-03-14T06:47:12;11.40;99.90
43627;DHT22;29217;52.586;13.442;2023-03-14T06:49:37;11.40;99.90
43627;DHT22;29217;52.586;13.442;2023-03-14T06:52:03;11.40;99.90
43627;DHT22;29217;52.586;13.442;2023-03-14T06:54:29;11.50;99.90
43627;DHT22;29217;52.586;13.442;2023-03-14T06:56:54;11.50;99.90
43627;DHT22;29217;52.586;13.442;2023-03-14T06:59:20;11.60;99.90
43627;DHT22;29217;52.586;13.442;2023-03-14T07:01:46;11.60;99.90
43627;DHT22;29217;52.586;13.442;2023-03-14T07:04:13;11.60;99.90
43627;DHT22;29217;52.586;13.442;2023-03-14T07:06:39;11.70;99.90
43627;DHT22;29217;52.586;13.442;2023-03-14T07:09:12;11.80;99.90
43627;DHT22;29217;52.586;13.442;2023-03-14T07:11:37;11.80;99.90
43627;DHT22;29217;52.586;13.442;2023-03-14T07:14:03;11.90;99.90
43627;DHT22;29217;52.586;13.442;2023-03-14T07:16:29;11.90;99.90
43627;DHT22;29217;52.586;13.442;2023-03-14T07:18:58;11.90;99.90
43627;DHT22;29217;52.586;13.442;2023-03-14T07:21:24;11.90;99.90
43627;DHT22;29217;52.586;13.442;2023-03-14T07:23:49;11.90;99.90
43627;DHT22;29217;52.586;13.442;2023-03-14T07:26:15;11.80;99.90
43627;DHT22;29217;52.586;13.442;2023-03-14T07:28:41;11.80;99.90
43627;DHT22;29217;52.586;13.442;2023-03-14T07:31:07;11.80;99.90
43627;DHT22;29217;52.586;13.442;2023-03-14T07:33:33;11.80;99.90
43627;DHT22;29217;52.586;13.442;2023-03-14T07:35:58;11.80;99.90
43627;DHT22;29217;52.586;13.442;2023-03-14T07:38:24;11.80;99.90
43627;DHT22;29217;52.586;13.442;2023-03-14T07:40:50;11.90;99.90
43627;DHT22;29217;52.586;13.442;2023-03-14T07:43:15;11.90;99.90
43627;DHT22;29217;52.586;13.442;2023-03-14T07:45:41;11.90;99.90
43627;DHT22;29217;52.586;13.442;2023-03-14T07:48:10;11.90;99.90
43627;DHT22;29217;52.586;13.442;2023-03-14T07:50:35;11.90;99.90
43627;DHT22;29217;52.586;13.442;2023-03-14T07:53:01;11.90;99.90
43627;DHT22;29217;52.586;13.442;2023-03-14T07:55:27;11.80;99.90
43627;DHT22;29217;52.586;13.442;2023-03-14T07:57:52;11.80;99.90
43627;DHT22;29217;52.586;13.442;2023-03-14T08:00:18;11.80;99.90
43627;DHT22;29217;52.586;13.442;2023-03-14T08:02:44;11.80;99.90
43627;DHT22;29217;52.586;13.442;2023-03-14T08:05:09;11.90;99.90
43627;DHT22;29217;52.586;13.442;2023-03-14T08:07:36;12.00;99.90
43627;DHT22;29217;52.586;13.442;2023-03-14T08:10:01;12.00;99.90
43627;DHT22;29217;52.586;13.442;2023-03-14T08:12:27;12.20;99.90
43627;DHT22;29217;52.586;13.442;2023-03-14T08:14:53;12.20;99.90
43627;DHT22;29217;52.586;13.442;2023-03-14T08:17:18;12.30;99.90
43627;DHT22;29217;52.586;13.442;2023-03-14T08:19:44;12.30;99.90
43627;DHT22;29217;52.586;13.442;2023-03-14T08:22:10;12.40;99.90
43627;DHT22;29217;52.586;13.442;2023-03-14T08:24:35;12.50;99.90
43627;DHT22;29217;52.586;13.442;2023-03-14T08:27:01;12.60;99.90
43627;DHT22;29217;52.586;13.442;2023-03-14T08:29:26;12.70;99.90
43627;DHT22;29217;52.586;13.442;2023-03-14T08:31:52;12.60;99.90
43627;DHT22;29217;52.586;13.442;2023-03-14T08:34:19;12.60;99.90
43627;DHT22;29217;52.586;13.442;2023-03-14T08:36:45;12.60;99.90
43627;DHT22;29217;52.586;13.442;2023-03-14T08:39:10;12.50;99.90
43627;DHT22;29217;52.586;13.442;2023-03-14T08:41:36;12.40;99.90
43627;DHT22;29217;52.586;13.442;2023-03-14T08:44:09;12.40;99.90
43627;DHT22;29217;52.586;13.442;2023-03-14T08:46:37;12.40;99.90
43627;DHT22;29217;52.586;13.442;2023-03-14T08:49:03;12.40;99.90
43627;DHT22;29217;52.586;13.442;2023-03-14T08:51:29;12.40;99.90
43627;DHT22;29217;52.586;13.442;2023-03-14T08:53:55;12.40;99.90
43627;DHT22;29217;52.586;13.442;2023-03-14T08:56:20;12.30;99.90
43627;DHT22;29217;52.586;13.442;2023-03-14T08:58:46;12.30;99.90
43627;DHT22;29217;52.586;13.442;2023-03-14T09:01:12;12.30;99.90
43627;DHT22;29217;52.586;13.442;2023-03-14T09:03:38;12.30;99.90
43627;DHT22;29217;52.586;13.442;2023-03-14T09:06:08;12.20;99.90
43627;DHT22;29217;52.586;13.442;2023-03-14T09:08:35;12.20;99.90
43627;DHT22;29217;52.586;13.442;2023-03-14T09:11:00;12.10;99.90
43627;DHT22;29217;52.586;13.442;2023-03-14T09:13:26;12.20;99.90
43627;DHT22;29217;52.586;13.442;2023-03-14T09:15:53;12.20;99.90
43627;DHT22;29217;52.586;13.442;2023-03-14T09:18:18;12.30;99.90
43627;DHT22;29217;52.586;13.442;2023-03-14T09:20:44;12.40;99.90
43627;DHT22;29217;52.586;13.442;2023-03-14T09:23:10;12.60;99.90
43627;DHT22;29217;52.586;13.442;2023-03-14T09:25:36;12.70;99.90
43627;DHT22;29217;52.586;13.442;2023-03-14T09:28:01;12.80;99.90
43627;DHT22;29217;52.586;13.442;2023-03-14T09:30:27;13.00;99.90
43627;DHT22;29217;52.586;13.442;2023-03-14T09:32:53;13.20;99.90
43627;DHT22;29217;52.586;13.442;2023-03-14T09:35:19;13.20;99.90
43627;DHT22;29217;52.586;13.442;2023-03-14T09:37:45;13.30;99.90
43627;DHT22;29217;52.586;13.442;2023-03-14T09:40:14;13.50;99.90
43627;DHT22;29217;52.586;13.442;2023-03-14T09:42:40;13.60;99.90
43627;DHT22;29217;52.586;13.442;2023-03-14T09:45:36;13.70;99.90
43627;DHT22;29217;52.586;13.442;2023-03-14T09:48:04;13.70;99.90
43627;DHT22;29217;52.586;13.442;2023-03-14T09:50:51;13.70;99.90
43627;DHT22;29217;52.586;13.442;2023-03-14T09:53:38;13.70;99.90
43627;DHT22;29217;52.586;13.442;2023-03-14T09:56:25;13.60;99.90
43627;DHT22;29217;52.586;13.442;2023-03-14T09:58:57;13.40;99.90
43627;DHT22;29217;52.586;13.442;2023-03-14T10:01:29;13.40;99.90
43627;DHT22;29217;52.586;13.442;2023-03-14T10:03:57;13.40;99.90
43627;DHT22;29217;52.586;13.442;2023-03-14T10:06:28;13.30;99.90
43627;DHT22;29217;52.586;13.442;2023-03-14T10:08:55;13.30;99.90
43627;DHT22;29217;52.586;13.442;2023-03-14T10:11:22;13.30;99.90
43627;DHT22;29217;52.586;13.442;2023-03-14T10:14:05;13.30;99.90
43627;DHT22;29217;52.586;13.442;2023-03-14T10:16:37;13.30;99.90
43627;DHT22;29217;52.586;13.442;2023-03-14T10:19:09;13.30;99.90
43627;DHT22;29217;52.586;13.442;2023-03-14T10:21:38;13.30;99.90
43627;DHT22;29217;52.586;13.442;2023-03-14T10:26:34;13.40;99.90
43627;DHT22;29217;52.586;13.442;2023-03-14T10:29:11;13.40;99.90
43627;DHT22;29217;52.586;13.442;2023-03-14T10:34:29;13.40;99.90
43627;DHT22;29217;52.586;13.442;2023-03-14T10:36:58;13.30;99.90
43627;DHT22;29217;52.586;13.442;2023-03-14T10:42:11;13.30;99.90
43627;DHT22;29217;52.586;13.442;2023-03-14T10:44:39;13.30;99.90
43627;DHT22;29217;52.586;13.442;2023-03-14T10:47:05;13.30;99.90
43627;DHT22;29217;52.586;13.442;2023-03-14T10:49:36;13.30;99.90
43627;DHT22;29217;52.586;13.442;2023-03-14T10:52:46;13.30;99.90
43627;DHT22;29217;52.586;13.442;2023-03-14T10:55:13;13.20;99.90
43627;DHT22;29217;52.586;13.442;2023-03-14T10:57:40;13.20;99.90
43627;DHT22;29217;52.586;13.442;2023-03-14T11:00:16;13.20;99.90
43627;DHT22;29217;52.586;13.442;2023-03-14T11:03:07;13.20;99.90
43627;DHT22;29217;52.586;13.442;2023-03-14T11:05:56;13.30;99.90
43627;DHT22;29217;52.586;13.442;2023-03-14T11:08:31;13.30;99.90
43627;DHT22;29217;52.586;13.442;2023-03-14T11:11:27;13.30;99.90
43627;DHT22;29217;52.586;13.442;2023-03-14T11:16:27;13.30;99.90
43627;DHT22;29217;52.586;13.442;2023-03-14T11:30:26;13.20;99.90
43627;DHT22;29217;52.586;13.442;2023-03-14T11:35:37;13.20;99.90
43627;DHT22;29217;52.586;13.442;2023-03-14T11:41:40;13.30;99.90
43627;DHT22;29217;52.586;13.442;2023-03-14T11:49:32;13.30;99.90
43627;DHT22;29217;52.586;13.442;2023-03-14T11:52:13;13.30;99.90
43627;DHT22;29217;52.586;13.442;2023-03-14T11:54:45;13.30;99.90
43627;DHT22;29217;52.586;13.442;2023-03-14T11:57:15;13.30;99.90
43627;DHT22;29217;52.586;13.442;2023-03-14T12:10:49;13.30;99.90
43627;DHT22;29217;52.586;13.442;2023-03-14T12:13:16;13.30;99.90
43627;DHT22;29217;52.586;13.442;2023-03-14T12:15:57;13.30;99.90
43627;DHT22;29217;52.586;13.442;2023-03-14T12:18:31;13.30;99.90
43627;DHT22;29217;52.586;13.442;2023-03-14T12:21:00;13.80;99.90
43627;DHT22;29217;52.586;13.442;2023-03-14T12:23:27;13.70;99.90
43627;DHT22;29217;52.586;13.442;2023-03-14T12:26:16;13.50;99.90
43627;DHT22;29217;52.586;13.442;2023-03-14T12:28:44;13.40;99.90
43627;DHT22;29217;52.586;13.442;2023-03-14T12:39:34;13.40;99.90
43627;DHT22;29217;52.586;13.442;2023-03-14T12:45:23;13.60;99.90
43627;DHT22;29217;52.586;13.442;2023-03-14T12:48:17;13.80;99.90
43627;DHT22;29217;52.586;13.442;2023-03-14T12:50:56;13.80;99.90
43627;DHT22;29217;52.586;13.442;2023-03-14T12:56:26;13.70;99.90
43627;DHT22;29217;52.586;13.442;2023-03-14T12:59:30;13.70;99.90
43627;DHT22;29217;52.586;13.442;2023-03-14T13:04:37;13.50;99.90
43627;DHT22;29217;52.586;13.442;2023-03-14T13:07:33;13.40;99.90
43627;DHT22;29217;52.586;13.442;2023-03-14T13:10:03;13.30;99.90
43627;DHT22;29217;52.586;13.442;2023-03-14T13:13:19;13.30;99.90
43627;DHT22;29217;52.586;13.442;2023-03-14T13:15:46;13.30;99.90
43627;DHT22;29217;52.586;13.442;2023-03-14T13:18:17;13.30;99.90
43627;DHT22;29217;52.586;13.442;2023-03-14T13:23:26;13.40;99.90
43627;DHT22;29217;52.586;13.442;2023-03-14T13:25:51;13.40;99.90
43627;DHT22;29217;52.586;13.442;2023-03-14T13:28:18;13.50;99.90
43627;DHT22;29217;52.586;13.442;2023-03-14T13:30:45;13.70;99.90
43627;DHT22;29217;52.586;13.442;2023-03-14T13:33:18;14.10;99.90
43627;DHT22;29217;52.586;13.442;2023-03-14T13:35:53;14.00;99.90
43627;DHT22;29217;52.586;13.442;2023-03-14T13:38:22;14.00;99.90
43627;DHT22;29217;52.586;13.442;2023-03-14T13:40:49;14.10;99.90
43627;DHT22;29217;52.586;13.442;2023-03-14T13:43:23;14.40;99.90
43627;DHT22;29217;52.586;13.442;2023-03-14T13:45:54;14.80;99.90
43627;DHT22;29217;52.586;13.442;2023-03-14T13:48:22;15.00;99.90
43627;DHT22;29217;52.586;13.442;2023-03-14T13:50:59;15.10;99.90
43627;DHT22;29217;52.586;13.442;2023-03-14T13:53:26;15.20;99.90
43627;DHT22;29217;52.586;13.442;2023-03-14T13:55:52;15.00;99.90
43627;DHT22;29217;52.586;13.442;2023-03-14T13:58:37;14.70;99.90
43627;DHT22;29217;52.586;13.442;2023-03-14T14:01:05;14.80;99.90
43627;DHT22;29217;52.586;13.442;2023-03-14T14:03:34;14.70;99.90
43627;DHT22;29217;52.586;13.442;2023-03-14T14:06:02;14.50;99.90
43627;DHT22;29217;52.586;13.442;2023-03-14T14:08:27;14.40;99.90
43627;DHT22;29217;52.586;13.442;2023-03-14T14:10:58;14.30;99.90
43627;DHT22;29217;52.586;13.442;2023-03-14T14:13:27;14.40;99.90
43627;DHT22;29217;52.586;13.442;2023-03-14T14:15:58;14.60;99.90
43627;DHT22;29217;52.586;13.442;2023-03-14T14:18:26;14.80;99.90
43627;DHT22;29217;52.586;13.442;2023-03-14T14:20:53;15.10;99.90
43627;DHT22;29217;52.586;13.442;2023-03-14T14:23:26;15.50;99.90
43627;DHT22;29217;52.586;13.442;2023-03-14T14:25:54;15.70;99.90
43627;DHT22;29217;52.586;13.442;2023-03-14T14:28:34;15.50;99.90
43627;DHT22;29217;52.586;13.442;2023-03-14T14:31:22;14.90;99.90
43627;DHT22;29217;52.586;13.442;2023-03-14T14:34:02;14.70;99.90
43627;DHT22;29217;52.586;13.442;2023-03-14T14:36:37;14.50;99.90
43627;DHT22;29217;52.586;13.442;2023-03-14T14:39:14;14.40;99.90
43627;DHT22;29217;52.586;13.442;2023-03-14T14:41:42;14.20;99.90
43627;DHT22;29217;52.586;13.442;2023-03-14T14:44:12;14.10;99.90
43627;DHT22;29217;52.586;13.442;2023-03-14T14:46:39;14.00;99.90
43627;DHT22;29217;52.586;13.442;2023-03-14T14:49:09;13.90;99.90
43627;DHT22;29217;52.586;13.442;2023-03-14T14:51:52;13.80;99.90
43627;DHT22;29217;52.586;13.442;2023-03-14T14:54:38;13.60;99.90
43627;DHT22;29217;52.586;13.442;2023-03-14T14:57:12;13.50;99.90
43627;DHT22;29217;52.586;13.442;2023-03-14T14:59:44;13.40;99.90
43627;DHT22;29217;52.586;13.442;2023-03-14T15:02:35;13.40;99.90
43627;DHT22;29217;52.586;13.442;2023-03-14T15:05:03;13.50;99.90
43627;DHT22;29217;52.586;13.442;2023-03-14T15:07:28;13.50;99.90
43627;DHT22;29217;52.586;13.442;2023-03-14T15:09:54;13.30;99.90
43627;DHT22;29217;52.586;13.442;2023-03-14T15:12:20;13.10;99.90
43627;DHT22;29217;52.586;13.442;2023-03-14T15:14:46;12.80;99.90
43627;DHT22;29217;52.586;13.442;2023-03-14T15:17:11;12.50;99.90
43627;DHT22;29217;52.586;13.442;2023-03-14T15:19:38;12.30;99.90
43627;DHT22;29217;52.586;13.442;2023-03-14T15:22:08;11.70;99.90
43627;DHT22;29217;52.586;13.442;2023-03-14T15:24:34;10.40;99.90
43627;DHT22;29217;52.586;13.442;2023-03-14T15:27:00;9.30;99.90
43627;DHT22;29217;52.586;13.442;2023-03-14T15:29:26;8.40;99.90
43627;DHT22;29217;52.586;13.442;2023-03-14T15:31:51;7.90;99.90
43627;DHT22;29217;52.586;13.442;2023-03-14T15:34:17;7.60;99.90
43627;DHT22;29217;52.586;13.442;2023-03-14T15:36:42;7.30;99.90
43627;DHT22;29217;52.586;13.442;2023-03-14T15:39:10;7.10;99.90
43627;DHT22;29217;52.586;13.442;2023-03-14T15:41:36;7.00;99.90
43627;DHT22;29217;52.586;13.442;2023-03-14T15:44:02;6.80;99.90
43627;DHT22;29217;52.586;13.442;2023-03-14T15:46:28;6.30;99.90
43627;DHT22;29217;52.586;13.442;2023-03-14T15:48:53;5.70;99.90
43627;DHT22;29217;52.586;13.442;2023-03-14T15:51:19;5.40;99.90
43627;DHT22;29217;52.586;13.442;2023-03-14T15:53:45;4.90;99.90
43627;DHT22;29217;52.586;13.442;2023-03-14T15:56:13;4.50;99.90
43627;DHT22;29217;52.586;13.442;2023-03-14T15:58:39;4.10;99.90
43627;DHT22;29217;52.586;13.442;2023-03-14T16:01:07;3.90;99.90
43627;DHT22;29217;52.586;13.442;2023-03-14T16:03:34;3.80;99.90
43627;DHT22;29217;52.586;13.442;2023-03-14T16:06:00;3.80;99.90
43627;DHT22;29217;52.586;13.442;2023-03-14T16:08:26;3.80;99.90
43627;DHT22;29217;52.586;13.442;2023-03-14T16:10:54;3.60;99.90
43627;DHT22;29217;52.586;13.442;2023-03-14T16:13:20;3.50;99.90
43627;DHT22;29217;52.586;13.442;2023-03-14T16:15:56;3.50;99.90
43627;DHT22;29217;52.586;13.442;2023-03-14T16:18:23;3.30;99.90
43627;DHT22;29217;52.586;13.442;2023-03-14T16:21:18;3.30;99.90
43627;DHT22;29217;52.586;13.442;2023-03-14T16:23:44;3.00;99.90
43627;DHT22;29217;52.586;13.442;2023-03-14T16:26:12;3.00;99.90
43627;DHT22;29217;52.586;13.442;2023-03-14T16:28:39;2.90;99.90
43627;DHT22;29217;52.586;13.442;2023-03-14T16:31:11;2.70;99.90
43627;DHT22;29217;52.586;13.442;2023-03-14T16:33:38;2.60;99.90
43627;DHT22;29217;52.586;13.442;2023-03-14T16:36:05;2.60;99.90
43627;DHT22;29217;52.586;13.442;2023-03-14T16:38:34;2.60;99.90